Diest, Belgium
Current Conditions -  °F | °C
As of 5:25 PM on Friday 21 Nov 2014 (Local Time) from EBDT Reporting Station
Broken Clouds Broken Clouds  
Wind Chill: 42°   Ceiling: 1800
Heat Index: 45°   Visibility: 6mi
Dew Point: 39°   Wind: 5mph
Humidity: 81%   Direction: 40°NE
Pressure: 30.09"   Gusts: NA
Location:  50.98°N, 5.05°E
Report Text: EBDT 211625Z AUTO 04004KT 9999 BKN018/// 07/04 Q1019 WHT
Loading
Personal Weather Stations






























Interactive Weather Map New forecast layout! Learn more

10-Day Weather Forecast

Advertisements
Track Severe Weather on mobile